Time;durP1;ratioP1;P1;durP2;ratioP2;P2;SDS_P1;SDS_P2;PMS_P1;PMS_P2;Temp;Humidity;BMP_temperature;BMP_pressure;BME280_temperature;BME280_humidity;BME280_pressure;Samples;Min_cycle;Max_cycle;Signal;HPM_P1;HPM_P2
2023/01/08 00:00:34;;;;;;;;;;;;;;;14.13;75.77;99921.34;1048808;28;1683;-70
2023/01/08 00:01:24;;;;;;;;;;;;;;;14.12;75.50;99919.66;1049077;28;637;-70
2023/01/08 00:02:15;;;;;;;;;;;;;;;14.13;75.39;99920.50;1050791;28;1175;-71
2023/01/08 00:03:05;;;;;;;;;;;;;;;14.12;75.70;99925.03;1053377;28;706;-71
2023/01/08 00:03:56;;;;;;;;;;;;;;;14.12;75.33;99922.34;1052348;28;1275;-71
2023/01/08 00:04:46;;;;;;;;;;;;;;;14.12;75.63;99916.97;1049197;28;698;-71
2023/01/08 00:05:37;;;;;;;;;;;;;;;14.12;75.79;99918.81;1049701;28;669;-71
2023/01/08 00:06:27;;;;;;;;;;;;;;;14.12;75.29;99916.97;1053590;28;964;-71
2023/01/08 00:07:18;;;;;;;;;;;;;;;14.11;75.33;99917.13;1052492;28;646;-71
2023/01/08 00:08:08;;;;;;;;;;;;;;;14.12;75.59;99916.13;1052496;28;996;-71
2023/01/08 00:08:59;;;;;;;;;;;;;;;14.11;75.60;99922.47;1052386;28;701;-71
2023/01/08 00:09:51;;;;;;;;;;;;;;;14.11;75.86;99914.44;1051926;28;937;-71
2023/01/08 00:10:41;;;;;;;;;;;;;;;14.12;75.47;99911.63;1047877;28;1489;-71
2023/01/08 00:11:31;;;;;;;;;;;;;;;14.11;75.57;99907.25;1045466;28;1115;-71
2023/01/08 00:12:22;;;;;;;;;;;;;;;14.11;75.46;99909.94;1048701;28;1901;-71
2023/01/08 00:13:12;;;;;;;;;;;;;;;14.15;75.17;99915.84;1048943;28;654;-71
2023/01/08 00:14:03;;;;;;;;;;;;;;;14.13;75.63;99918.69;1050824;28;1104;-71
2023/01/08 00:14:53;;;;;;;;;;;;;;;14.13;75.84;99921.34;1049022;28;689;-70
2023/01/08 00:15:44;;;;;;;;;;;;;;;14.13;75.65;99917.81;1052372;28;602;-71
2023/01/08 00:16:34;;;;;;;;;;;;;;;14.12;75.54;99916.97;1049407;28;674;-71
2023/01/08 00:17:24;;;;;;;;;;;;;;;14.12;75.93;99918.81;1051724;28;1234;-71
2023/01/08 00:18:15;;;;;;;;;;;;;;;14.12;75.46;99927.69;1048804;28;625;-72
2023/01/08 00:19:05;;;;;;;;;;;;;;;14.12;75.32;99921.50;1051731;28;1219;-71
2023/01/08 00:19:56;;;;;;;;;;;;;;;14.12;75.36;99919.66;1052847;28;1703;-71
2023/01/08 00:20:46;;;;;;;;;;;;;;;14.12;75.48;99927.69;1048299;28;795;-71
2023/01/08 00:21:37;;;;;;;;;;;;;;;14.12;75.40;99922.34;1049494;28;1151;-71
2023/01/08 00:22:27;;;;;;;;;;;;;;;14.11;75.38;99920.66;1052297;28;729;-71
2023/01/08 00:23:17;;;;;;;;;;;;;;;14.10;75.20;99916.28;1052489;28;1163;-71
2023/01/08 00:24:08;;;;;;;;;;;;;;;14.10;75.28;99915.44;1051849;28;988;-71
2023/01/08 00:24:58;;;;;;;;;;;;;;;14.10;75.62;99910.91;1052601;28;704;-71
2023/01/08 00:25:49;;;;;;;;;;;;;;;14.08;75.65;99918.25;1052120;28;1000;-71
2023/01/08 00:26:39;;;;;;;;;;;;;;;14.09;75.50;99916.41;1052613;28;641;-71
2023/01/08 00:27:30;;;;;;;;;;;;;;;14.09;75.52;99916.41;1052058;28;1070;-71
2023/01/08 00:28:20;;;;;;;;;;;;;;;14.10;75.38;99912.75;1052631;28;822;-71
2023/01/08 00:29:11;;;;;;;;;;;;;;;14.08;75.03;99912.91;1052099;28;1060;-72
2023/01/08 00:30:01;;;;;;;;;;;;;;;14.10;75.33;99912.75;1052486;28;1761;-71
2023/01/08 00:30:52;;;;;;;;;;;;;;;14.09;75.58;99911.91;1052804;28;693;-71
2023/01/08 00:31:42;;;;;;;;;;;;;;;14.09;75.41;99917.28;1052836;28;1218;-71
2023/01/08 00:32:32;;;;;;;;;;;;;;;14.09;75.37;99911.06;1048906;28;1894;-71
2023/01/08 00:33:23;;;;;;;;;;;;;;;14.07;75.05;99913.88;1052185;28;1195;-71
2023/01/08 00:34:13;;;;;;;;;;;;;;;14.07;75.64;99905.00;1048990;28;1079;-71
2023/01/08 00:35:04;;;;;;;;;;;;;;;14.08;75.57;99915.56;1052165;28;718;-71
2023/01/08 00:35:54;;;;;;;;;;;;;;;14.07;75.45;99913.88;1052459;28;645;-71
2023/01/08 00:36:45;;;;;;;;;;;;;;;14.07;75.69;99916.56;1052115;28;770;-72
2023/01/08 00:37:35;;;;;;;;;;;;;;;14.08;75.57;99912.91;1052992;28;672;-71
2023/01/08 00:38:26;;;;;;;;;;;;;;;14.08;75.49;99902.19;1052557;28;697;-71
2023/01/08 00:39:16;;;;;;;;;;;;;;;14.09;75.47;99903.88;1052255;28;653;-71
2023/01/08 00:40:06;;;;;;;;;;;;;;;14.08;75.67;99910.22;1052734;28;1373;-71
2023/01/08 00:40:57;;;;;;;;;;;;;;;14.09;75.58;99909.22;1052295;28;693;-71
2023/01/08 00:41:48;;;;;;;;;;;;;;;14.10;75.54;99897.53;1051830;28;991;-71
2023/01/08 00:42:38;;;;;;;;;;;;;;;14.10;75.08;99897.53;1048986;28;708;-71
2023/01/08 00:43:29;;;;;;;;;;;;;;;14.09;75.18;99897.66;1052097;28;1191;-71
2023/01/08 00:44:19;;;;;;;;;;;;;;;14.09;75.67;99895.84;1049136;28;676;-71
2023/01/08 00:45:10;;;;;;;;;;;;;;;14.09;75.40;99890.47;1046948;28;1008;-71
2023/01/08 00:46:00;;;;;;;;;;;;;;;14.09;75.24;99889.63;1049728;28;683;-71
2023/01/08 00:46:51;;;;;;;;;;;;;;;14.07;75.12;99887.09;1047968;28;672;-71
2023/01/08 00:47:41;;;;;;;;;;;;;;;14.08;74.98;99887.94;1052357;28;677;-71
2023/01/08 00:48:37;;;;;;;;;;;;;;;14.07;75.11;99881.72;1049340;28;1134;-71
2023/01/08 00:49:28;;;;;;;;;;;;;;;14.07;75.33;99887.09;1052212;28;665;-71
2023/01/08 00:50:18;;;;;;;;;;;;;;;14.06;75.18;99882.72;1051271;28;1612;-71
2023/01/08 00:51:09;;;;;;;;;;;;;;;14.07;75.07;99880.88;1049667;28;642;-71
2023/01/08 00:51:59;;;;;;;;;;;;;;;14.07;75.20;99876.38;1052161;28;1179;-71
2023/01/08 00:52:50;;;;;;;;;;;;;;;14.06;75.57;99879.19;1052494;28;698;-71
2023/01/08 00:53:40;;;;;;;;;;;;;;;14.06;75.42;99888.09;1052264;28;681;-71
2023/01/08 00:54:30;;;;;;;;;;;;;;;14.08;75.13;99882.59;1051817;28;1054;-71
2023/01/08 00:55:21;;;;;;;;;;;;;;;14.08;75.43;99879.91;1052265;28;669;-71
2023/01/08 00:56:11;;;;;;;;;;;;;;;14.06;75.28;99880.03;1052353;28;743;-71
2023/01/08 00:57:02;;;;;;;;;;;;;;;14.06;75.46;99872.00;1050779;28;814;-71
2023/01/08 00:57:52;;;;;;;;;;;;;;;14.06;75.22;99874.69;1051961;28;1098;-71
2023/01/08 00:58:43;;;;;;;;;;;;;;;14.07;75.26;99875.53;1052159;28;642;-71
2023/01/08 00:59:33;;;;;;;;;;;;;;;14.07;75.53;99878.22;1052208;28;1020;-71
2023/01/08 01:00:24;;;;;;;;;;;;;;;14.05;75.15;99889.06;1052725;28;1757;-71
2023/01/08 01:01:14;;;;;;;;;;;;;;;14.07;75.35;99876.38;1049616;28;1075;-70
2023/01/08 01:02:05;;;;;;;;;;;;;;;14.08;75.10;99880.75;1051885;28;1376;-71
2023/01/08 01:02:55;;;;;;;;;;;;;;;14.08;75.37;99877.22;1048799;28;578;-71
2023/01/08 01:03:46;;;;;;;;;;;;;;;14.08;75.31;99879.91;1052566;28;645;-71
2023/01/08 01:04:36;;;;;;;;;;;;;;;14.07;75.47;99884.41;1052877;28;720;-71
2023/01/08 01:05:26;;;;;;;;;;;;;;;14.09;75.11;99884.28;1052894;28;1182;-71
2023/01/08 01:06:17;;;;;;;;;;;;;;;14.08;75.18;99880.75;1048545;28;649;-71
2023/01/08 01:07:07;;;;;;;;;;;;;;;14.08;75.40;99888.78;1049504;28;698;-72
2023/01/08 01:07:58;;;;;;;;;;;;;;;14.08;75.48;99882.59;1051702;28;622;-71
2023/01/08 01:08:48;;;;;;;;;;;;;;;14.08;75.15;99879.91;1048957;28;725;-71
2023/01/08 01:09:39;;;;;;;;;;;;;;;14.09;75.36;99874.41;1048333;28;716;-72
2023/01/08 01:10:29;;;;;;;;;;;;;;;14.09;75.55;99863.69;1052399;28;1600;-72
2023/01/08 01:11:20;;;;;;;;;;;;;;;14.08;75.29;99871.88;1052531;28;708;-72
2023/01/08 01:12:10;;;;;;;;;;;;;;;14.09;75.13;99870.88;1052020;28;1370;-71
2023/01/08 01:13:01;;;;;;;;;;;;;;;14.09;75.46;99862.84;1052420;28;689;-71
2023/01/08 01:13:51;;;;;;;;;;;;;;;14.08;75.56;99864.66;1047979;28;660;-71
2023/01/08 01:14:41;;;;;;;;;;;;;;;14.08;75.58;99871.88;1048120;28;988;-71
2023/01/08 01:15:32;;;;;;;;;;;;;;;14.08;75.13;99875.38;1049195;28;745;-71
2023/01/08 01:16:22;;;;;;;;;;;;;;;14.08;75.50;99866.50;1049214;28;668;-71
2023/01/08 01:17:13;;;;;;;;;;;;;;;14.08;75.40;99871.88;1049241;28;685;-71
2023/01/08 01:18:03;;;;;;;;;;;;;;;14.09;75.83;99873.56;1048889;28;1195;-71
2023/01/08 01:18:55;;;;;;;;;;;;;;;14.08;75.74;99867.34;1048451;28;690;-72
2023/01/08 01:19:45;;;;;;;;;;;;;;;14.07;75.50;99862.97;1048196;28;682;-71
2023/01/08 01:20:36;;;;;;;;;;;;;;;14.07;75.77;99864.81;1052017;28;1541;-71
2023/01/08 01:21:26;;;;;;;;;;;;;;;14.08;75.17;99866.50;1052730;28;1166;-72
2023/01/08 01:22:17;;;;;;;;;;;;;;;14.06;75.27;99866.66;1048729;28;1083;-71
2023/01/08 01:23:07;;;;;;;;;;;;;;;14.06;75.68;99869.31;1049841;28;987;-71
2023/01/08 01:23:58;;;;;;;;;;;;;;;14.05;75.41;99859.59;1051671;28;1166;-72
2023/01/08 01:24:48;;;;;;;;;;;;;;;14.07;75.29;99864.81;1052134;28;726;-72
2023/01/08 01:25:39;;;;;;;;;;;;;;;14.05;75.52;99864.97;1049256;28;649;-72
2023/01/08 01:26:29;;;;;;;;;;;;;;;14.05;75.59;99856.91;1048929;28;719;-72
2023/01/08 01:27:19;;;;;;;;;;;;;;;14.05;75.53;99862.28;1052142;28;1087;-72
2023/01/08 01:28:10;;;;;;;;;;;;;;;14.06;75.58;99860.44;1051977;28;932;-72
2023/01/08 01:29:00;;;;;;;;;;;;;;;14.05;75.36;99862.28;1052287;28;638;-71
2023/01/08 01:29:51;;;;;;;;;;;;;;;14.06;75.55;99855.94;1051956;28;703;-72
2023/01/08 01:30:41;;;;;;;;;;;;;;;14.05;75.71;99854.25;1053409;28;641;-72
2023/01/08 01:31:32;;;;;;;;;;;;;;;14.06;75.71;99857.75;1049289;28;733;-72
2023/01/08 01:32:22;;;;;;;;;;;;;;;14.04;75.83;99855.22;1052662;28;1914;-71
2023/01/08 01:33:12;;;;;;;;;;;;;;;14.06;75.66;99849.72;1048708;28;1075;-71
2023/01/08 01:34:03;;;;;;;;;;;;;;;14.06;75.59;99861.28;1049446;28;683;-72
2023/01/08 01:34:53;;;;;;;;;;;;;;;14.07;75.66;99854.09;1049110;28;728;-72
2023/01/08 01:35:44;;;;;;;;;;;;;;;14.05;75.64;99862.28;1049906;28;1128;-72
2023/01/08 01:36:34;;;;;;;;;;;;;;;14.07;75.36;99864.81;1048592;28;669;-71
2023/01/08 01:37:25;;;;;;;;;;;;;;;14.06;75.76;99863.97;1048156;28;646;-71
2023/01/08 01:38:15;;;;;;;;;;;;;;;14.06;75.85;99858.63;1049120;28;696;-71
2023/01/08 01:39:05;;;;;;;;;;;;;;;14.05;75.74;99856.91;1048562;28;641;-71
2023/01/08 01:39:56;;;;;;;;;;;;;;;14.04;75.68;99857.06;1051259;28;717;-71
2023/01/08 01:40:47;;;;;;;;;;;;;;;14.04;75.68;99847.19;1048479;28;1269;-71
2023/01/08 01:41:37;;;;;;;;;;;;;;;14.04;75.39;99857.91;1047652;28;651;-72
2023/01/08 01:42:40;;;;;;;;;;;;;;;14.04;75.84;99860.59;1053389;28;705;-72
2023/01/08 01:43:30;;;;;;;;;;;;;;;14.05;75.68;99856.06;1052845;28;709;-72
2023/01/08 01:44:21;;;;;;;;;;;;;;;14.07;75.36;99848.75;1051831;28;1187;-72
2023/01/08 01:45:11;;;;;;;;;;;;;;;14.06;75.20;99847.91;1052257;28;673;-72
2023/01/08 01:46:02;;;;;;;;;;;;;;;14.07;75.39;99848.75;1052587;28;704;-71
2023/01/08 01:46:52;;;;;;;;;;;;;;;14.06;75.36;99847.91;1052688;28;629;-71
2023/01/08 01:47:43;;;;;;;;;;;;;;;14.05;75.71;99859.59;1050465;28;1075;-71
2023/01/08 01:48:33;;;;;;;;;;;;;;;14.06;75.54;99850.56;1052085;28;617;-71
2023/01/08 01:49:24;;;;;;;;;;;;;;;14.05;75.38;99854.25;1050334;28;1079;-71
2023/01/08 01:50:14;;;;;;;;;;;;;;;14.06;75.20;99847.91;1047812;28;659;-71
2023/01/08 01:51:04;;;;;;;;;;;;;;;14.06;75.16;99855.09;1048604;28;716;-71
2023/01/08 01:51:55;;;;;;;;;;;;;;;14.07;75.47;99862.13;1051096;28;1684;-71
2023/01/08 01:52:45;;;;;;;;;;;;;;;14.06;75.29;99855.94;1048415;28;1950;-71
2023/01/08 01:53:36;;;;;;;;;;;;;;;14.07;75.30;99859.47;1048161;28;627;-71
2023/01/08 01:54:26;;;;;;;;;;;;;;;14.05;75.23;99862.28;1052120;28;731;-71
2023/01/08 01:55:17;;;;;;;;;;;;;;;14.07;75.72;99865.66;1052644;28;1159;-71
2023/01/08 01:56:07;;;;;;;;;;;;;;;14.05;75.13;99867.63;1048355;28;681;-71
2023/01/08 01:56:57;;;;;;;;;;;;;;;14.07;75.44;99859.47;1048416;28;762;-71
2023/01/08 01:57:48;;;;;;;;;;;;;;;14.06;75.35;99853.25;1051881;28;638;-71
2023/01/08 01:58:38;;;;;;;;;;;;;;;14.06;75.23;99858.63;1052190;28;1364;-71
2023/01/08 01:59:29;;;;;;;;;;;;;;;14.05;75.74;99864.97;1052448;28;669;-71
2023/01/08 02:00:19;;;;;;;;;;;;;;;14.04;75.27;99871.31;1052556;28;667;-71
2023/01/08 02:01:10;;;;;;;;;;;;;;;14.05;75.25;99867.63;1052284;28;716;-71
2023/01/08 02:02:00;;;;;;;;;;;;;;;14.06;75.43;99869.31;1051435;28;899;-72
2023/01/08 02:02:50;;;;;;;;;;;;;;;14.06;75.82;99868.47;1052743;28;708;-71
2023/01/08 02:03:41;;;;;;;;;;;;;;;14.06;75.53;99863.97;1051143;28;1144;-72
2023/01/08 02:04:31;;;;;;;;;;;;;;;14.05;75.52;99854.25;1052555;28;1138;-72
2023/01/08 02:05:22;;;;;;;;;;;;;;;14.05;75.51;99867.63;1052506;28;809;-72
2023/01/08 02:06:12;;;;;;;;;;;;;;;14.05;75.56;99856.06;1052016;28;667;-72
2023/01/08 02:07:03;;;;;;;;;;;;;;;14.03;75.42;99856.22;1049021;28;682;-72
2023/01/08 02:07:53;;;;;;;;;;;;;;;14.04;75.60;99857.06;1048444;28;654;-71
2023/01/08 02:08:44;;;;;;;;;;;;;;;14.03;75.63;99858.91;1045677;28;1581;-71
2023/01/08 02:09:35;;;;;;;;;;;;;;;14.05;75.51;99862.28;1048692;28;757;-71
2023/01/08 02:10:26;;;;;;;;;;;;;;;14.05;75.34;99864.97;1048389;28;693;-71
2023/01/08 02:11:16;;;;;;;;;;;;;;;14.04;75.83;99855.22;1049093;28;677;-71
2023/01/08 02:12:16;;;;;;;;;;;;;;;14.03;75.72;99858.91;1051372;28;1118;-72
2023/01/08 02:13:06;;;;;;;;;;;;;;;14.05;75.50;99853.41;1051949;28;658;-71
2023/01/08 02:13:56;;;;;;;;;;;;;;;14.05;75.73;99856.06;1051990;28;1317;-71
2023/01/08 02:14:47;;;;;;;;;;;;;;;14.04;75.67;99860.59;1051760;28;762;-71
2023/01/08 02:15:37;;;;;;;;;;;;;;;14.04;75.37;99860.59;1052459;28;1236;-71
2023/01/08 02:16:28;;;;;;;;;;;;;;;14.02;75.50;99851.84;1052207;28;698;-71
2023/01/08 02:17:18;;;;;;;;;;;;;;;14.03;75.41;99858.91;1051837;28;1202;-71
2023/01/08 02:18:09;;;;;;;;;;;;;;;14.04;75.62;99865.94;1048701;28;757;-71
2023/01/08 02:18:59;;;;;;;;;;;;;;;14.04;75.83;99870.47;1044139;28;1652;-71
2023/01/08 02:19:49;;;;;;;;;;;;;;;14.05;75.64;99864.13;1040345;28;709;-71
2023/01/08 02:20:40;;;;;;;;;;;;;;;14.05;75.45;99861.44;1050042;28;1392;-71
2023/01/08 02:21:30;;;;;;;;;;;;;;;14.04;75.72;99865.94;1048239;28;689;-71
2023/01/08 02:22:21;;;;;;;;;;;;;;;14.03;75.61;99856.22;1053135;28;680;-71
2023/01/08 02:23:11;;;;;;;;;;;;;;;14.02;75.96;99851.84;1048907;28;847;-71
2023/01/08 02:24:02;;;;;;;;;;;;;;;14.03;75.43;99850.00;1052042;28;1330;-71
2023/01/08 02:24:52;;;;;;;;;;;;;;;14.04;75.68;99846.34;1048835;28;1091;-71
2023/01/08 02:25:42;;;;;;;;;;;;;;;14.03;75.65;99841.97;1052136;28;711;-71
2023/01/08 02:26:33;;;;;;;;;;;;;;;14.03;75.41;99852.69;1051906;28;645;-71
2023/01/08 02:27:23;;;;;;;;;;;;;;;14.02;75.28;99857.22;1051863;28;1135;-71
2023/01/08 02:28:14;;;;;;;;;;;;;;;14.03;75.64;99847.34;1051800;28;651;-71
2023/01/08 02:29:04;;;;;;;;;;;;;;;14.02;75.63;99851.84;1052162;28;1675;-71
2023/01/08 02:29:55;;;;;;;;;;;;;;;14.02;75.77;99849.16;1052083;28;625;-71
2023/01/08 02:30:45;;;;;;;;;;;;;;;14.03;75.86;99853.53;1051775;28;1386;-71
2023/01/08 02:31:35;;;;;;;;;;;;;;;14.03;75.36;99847.34;1051857;28;1111;-71
2023/01/08 02:32:26;;;;;;;;;;;;;;;14.02;75.30;99840.28;1051746;28;1901;-71
2023/01/08 02:33:16;;;;;;;;;;;;;;;14.03;75.78;99850.00;1052463;28;1182;-71
2023/01/08 02:34:07;;;;;;;;;;;;;;;14.03;76.01;99847.34;1052621;28;795;-71
2023/01/08 02:34:57;;;;;;;;;;;;;;;14.02;75.28;99846.50;1051927;28;1263;-71
2023/01/08 02:35:48;;;;;;;;;;;;;;;14.02;75.80;99840.28;1051961;28;725;-71
2023/01/08 02:36:38;;;;;;;;;;;;;;;14.02;75.55;99841.13;1051806;28;807;-71
2023/01/08 02:37:28;;;;;;;;;;;;;;;14.01;75.75;99834.09;1051103;28;1123;-71
2023/01/08 02:38:19;;;;;;;;;;;;;;;14.00;75.54;99837.75;1051716;28;614;-71
2023/01/08 02:39:09;;;;;;;;;;;;;;;14.00;75.90;99843.13;1051587;28;1648;-71
2023/01/08 02:40:00;;;;;;;;;;;;;;;14.00;75.66;99840.44;1052555;28;654;-71
2023/01/08 02:40:50;;;;;;;;;;;;;;;14.01;75.76;99844.81;1044054;28;1119;-71
2023/01/08 02:41:40;;;;;;;;;;;;;;;14.00;75.53;99834.22;1049293;28;657;-71
2023/01/08 02:42:31;;;;;;;;;;;;;;;14.00;75.73;99842.28;1046284;28;1162;-71
2023/01/08 02:43:21;;;;;;;;;;;;;;;13.98;75.78;99837.06;1049718;28;752;-71
2023/01/08 02:44:12;;;;;;;;;;;;;;;14.00;75.95;99827.03;1052374;28;1174;-71
2023/01/08 02:45:02;;;;;;;;;;;;;;;14.01;75.58;99823.38;1051884;28;706;-71
2023/01/08 02:45:53;;;;;;;;;;;;;;;13.99;75.61;99830.72;1051884;28;1131;-71
2023/01/08 02:46:43;;;;;;;;;;;;;;;14.00;75.43;99827.03;1051484;28;1651;-71
2023/01/08 02:47:33;;;;;;;;;;;;;;;14.00;75.88;99832.41;1048922;28;629;-70
2023/01/08 02:48:24;;;;;;;;;;;;;;;14.00;75.35;99832.41;1051313;28;1367;-71
2023/01/08 02:49:14;;;;;;;;;;;;;;;14.01;75.38;99835.91;1052115;28;669;-71
2023/01/08 02:50:05;;;;;;;;;;;;;;;14.01;75.94;99842.13;1052032;28;681;-71
2023/01/08 02:50:55;;;;;;;;;;;;;;;14.00;75.82;99836.91;1052436;28;556;-71
2023/01/08 02:51:45;;;;;;;;;;;;;;;14.02;75.48;99842.97;1052449;28;672;-71
2023/01/08 02:52:36;;;;;;;;;;;;;;;14.02;75.49;99840.28;1051427;28;1890;-71
2023/01/08 02:53:26;;;;;;;;;;;;;;;14.00;75.88;99835.06;1048483;28;775;-72
2023/01/08 02:54:17;;;;;;;;;;;;;;;14.00;75.39;99839.59;1048849;28;677;-71
2023/01/08 02:55:07;;;;;;;;;;;;;;;14.00;75.78;99835.06;1048993;28;704;-71
2023/01/08 02:55:58;;;;;;;;;;;;;;;14.00;75.25;99826.19;1051018;28;1167;-71
2023/01/08 02:56:48;;;;;;;;;;;;;;;13.99;75.18;99836.06;1050728;28;1756;-71
2023/01/08 02:57:39;;;;;;;;;;;;;;;14.00;75.74;99840.44;1048744;28;686;-71
2023/01/08 02:58:29;;;;;;;;;;;;;;;14.00;75.28;99839.59;1048811;28;638;-71
2023/01/08 02:59:19;;;;;;;;;;;;;;;14.01;75.76;99841.28;1050219;28;1233;-71
2023/01/08 03:00:10;;;;;;;;;;;;;;;14.00;75.59;99844.94;1048260;28;622;-71
2023/01/08 03:01:00;;;;;;;;;;;;;;;13.99;75.63;99836.06;1051784;28;1272;-72
2023/01/08 03:01:51;;;;;;;;;;;;;;;13.99;75.34;99840.56;1051477;28;1289;-71
2023/01/08 03:02:42;;;;;;;;;;;;;;;13.98;75.47;99834.38;1052075;28;658;-72
2023/01/08 03:03:33;;;;;;;;;;;;;;;13.99;75.81;99835.22;1051842;28;618;-71
2023/01/08 03:04:23;;;;;;;;;;;;;;;13.98;75.51;99834.38;1051926;28;658;-71
2023/01/08 03:05:14;;;;;;;;;;;;;;;13.99;75.43;99836.06;1051637;28;1127;-71
2023/01/08 03:06:04;;;;;;;;;;;;;;;13.99;75.86;99840.56;1051910;28;769;-71
2023/01/08 03:06:55;;;;;;;;;;;;;;;13.99;75.71;99841.41;1052334;28;1670;-71
2023/01/08 03:07:45;;;;;;;;;;;;;;;14.00;75.41;99844.94;1052181;28;757;-72
2023/01/08 03:08:36;;;;;;;;;;;;;;;13.99;75.77;99841.41;1051869;28;1699;-72
2023/01/08 03:09:26;;;;;;;;;;;;;;;14.00;75.34;99844.94;1047984;28;1011;-71
2023/01/08 03:10:16;;;;;;;;;;;;;;;13.99;75.64;99845.94;1048973;28;673;-71
2023/01/08 03:11:07;;;;;;;;;;;;;;;13.99;75.83;99841.41;1050031;28;1055;-71
2023/01/08 03:11:57;;;;;;;;;;;;;;;13.99;75.47;99837.91;1051842;28;598;-71
2023/01/08 03:12:48;;;;;;;;;;;;;;;13.98;75.48;99844.25;1050392;28;1961;-71
2023/01/08 03:13:38;;;;;;;;;;;;;;;13.96;75.33;99841.75;1051773;28;633;-71
2023/01/08 03:14:29;;;;;;;;;;;;;;;13.99;75.88;99840.56;1052004;28;638;-71
2023/01/08 03:15:19;;;;;;;;;;;;;;;13.99;75.67;99832.53;1051784;28;689;-71
2023/01/08 03:16:09;;;;;;;;;;;;;;;13.98;75.56;99837.06;1049611;28;1099;-71
2023/01/08 03:17:00;;;;;;;;;;;;;;;13.97;75.92;99835.41;1051844;28;1735;-72
2023/01/08 03:17:50;;;;;;;;;;;;;;;13.98;75.37;99830.84;1048182;28;622;-71
2023/01/08 03:18:41;;;;;;;;;;;;;;;13.98;75.53;99834.38;1051623;28;907;-71
2023/01/08 03:19:31;;;;;;;;;;;;;;;13.97;75.38;99835.41;1051643;28;1099;-72
2023/01/08 03:20:22;;;;;;;;;;;;;;;13.96;75.81;99831.03;1052093;28;722;-71
2023/01/08 03:21:12;;;;;;;;;;;;;;;13.96;75.57;99832.84;1052453;28;676;-72
2023/01/08 03:22:03;;;;;;;;;;;;;;;13.97;75.23;99837.22;1048494;28;730;-72
2023/01/08 03:22:53;;;;;;;;;;;;;;;13.96;75.22;99835.53;1047761;28;1186;-71
2023/01/08 03:23:44;;;;;;;;;;;;;;;13.94;75.80;99827.66;1048992;28;751;-71
2023/01/08 03:24:34;;;;;;;;;;;;;;;13.95;75.64;99823.97;1052932;28;641;-71
2023/01/08 03:25:24;;;;;;;;;;;;;;;13.97;75.34;99824.69;1051798;28;650;-71
2023/01/08 03:26:15;;;;;;;;;;;;;;;13.97;75.70;99824.69;1051902;28;1134;-71
2023/01/08 03:27:05;;;;;;;;;;;;;;;13.98;75.33;99820.13;1051669;28;1509;-71
2023/01/08 03:27:56;;;;;;;;;;;;;;;13.96;75.86;99820.31;1052196;28;1126;-71
2023/01/08 03:28:46;;;;;;;;;;;;;;;13.97;75.51;99810.44;1049780;28;1591;-71
2023/01/08 03:29:37;;;;;;;;;;;;;;;13.96;75.33;99814.97;1051898;28;1182;-71
2023/01/08 03:30:27;;;;;;;;;;;;;;;13.95;75.46;99817.78;1048127;28;673;-71
2023/01/08 03:31:17;;;;;;;;;;;;;;;13.93;75.70;99815.25;1047715;28;653;-71
2023/01/08 03:32:08;;;;;;;;;;;;;;;13.94;75.63;99814.25;1050952;28;645;-71
2023/01/08 03:32:58;;;;;;;;;;;;;;;13.95;75.79;99815.94;1051908;28;630;-71
2023/01/08 03:33:49;;;;;;;;;;;;;;;13.96;75.26;99812.28;1052558;28;681;-71
2023/01/08 03:34:39;;;;;;;;;;;;;;;13.97;74.85;99816.66;1052275;28;706;-71
2023/01/08 03:35:30;;;;;;;;;;;;;;;13.95;75.72;99821.31;1051980;28;709;-71
2023/01/08 03:36:20;;;;;;;;;;;;;;;13.96;75.66;99814.09;1047124;28;689;-71
2023/01/08 03:37:11;;;;;;;;;;;;;;;13.94;75.62;99811.56;1043403;28;700;-71
2023/01/08 03:38:02;;;;;;;;;;;;;;;13.94;75.86;99819.63;1047867;28;1020;-71
2023/01/08 03:38:52;;;;;;;;;;;;;;;13.94;75.41;99816.94;1051692;28;642;-71
2023/01/08 03:39:42;;;;;;;;;;;;;;;13.94;75.90;99816.09;1048479;28;761;-71
2023/01/08 03:40:33;;;;;;;;;;;;;;;13.95;75.36;99812.41;1048982;28;709;-71
2023/01/08 03:41:23;;;;;;;;;;;;;;;13.95;75.29;99813.25;1052899;28;769;-71
2023/01/08 03:42:14;;;;;;;;;;;;;;;13.95;75.79;99823.97;1048793;28;623;-71
2023/01/08 03:43:04;;;;;;;;;;;;;;;13.95;75.94;99810.59;1051160;28;1051;-71
2023/01/08 03:43:55;;;;;;;;;;;;;;;13.94;75.65;99816.09;1051993;28;787;-71
2023/01/08 03:44:45;;;;;;;;;;;;;;;13.93;75.23;99815.25;1048174;28;922;-71
2023/01/08 03:45:35;;;;;;;;;;;;;;;13.94;75.37;99806.22;1049676;28;1147;-71
2023/01/08 03:46:26;;;;;;;;;;;;;;;13.92;75.43;99813.56;1044931;28;725;-71
2023/01/08 03:47:16;;;;;;;;;;;;;;;13.94;75.82;99816.94;1043412;28;678;-71
2023/01/08 03:48:07;;;;;;;;;;;;;;;13.94;75.72;99816.09;1048179;28;697;-71
2023/01/08 03:48:57;;;;;;;;;;;;;;;13.94;75.47;99813.41;1049652;28;1119;-71
2023/01/08 03:49:48;;;;;;;;;;;;;;;13.92;75.23;99818.91;1051884;28;641;-71
2023/01/08 03:50:38;;;;;;;;;;;;;;;13.93;75.46;99812.56;1051402;28;1143;-71
2023/01/08 03:51:28;;;;;;;;;;;;;;;13.92;75.50;99816.22;1051798;28;610;-71
2023/01/08 03:52:19;;;;;;;;;;;;;;;13.92;75.02;99810.03;1051973;28;693;-71
2023/01/08 03:53:09;;;;;;;;;;;;;;;13.94;74.96;99810.72;1051735;28;645;-71
2023/01/08 03:54:00;;;;;;;;;;;;;;;13.93;75.28;99809.03;1051833;28;666;-71
2023/01/08 03:54:50;;;;;;;;;;;;;;;13.92;75.14;99802.00;1052017;28;1164;-71
2023/01/08 03:55:41;;;;;;;;;;;;;;;13.91;75.02;99814.53;1051817;28;693;-71
2023/01/08 03:56:31;;;;;;;;;;;;;;;13.92;75.66;99812.72;1049690;28;1034;-71
2023/01/08 03:57:22;;;;;;;;;;;;;;;13.92;75.51;99807.34;1051930;28;1121;-71
2023/01/08 03:58:12;;;;;;;;;;;;;;;13.91;75.42;99806.50;1051115;28;1066;-71
2023/01/08 03:59:02;;;;;;;;;;;;;;;13.90;75.18;99800.31;1052155;28;1235;-71
2023/01/08 03:59:53;;;;;;;;;;;;;;;13.89;75.36;99803.13;1050967;28;1094;-71
2023/01/08 04:00:43;;;;;;;;;;;;;;;13.89;75.27;99801.28;1052008;28;1097;-71
2023/01/08 04:01:34;;;;;;;;;;;;;;;13.90;75.39;99810.16;1051384;28;1074;-71
2023/01/08 04:02:24;;;;;;;;;;;;;;;13.90;75.18;99808.34;1051650;28;1034;-71
2023/01/08 04:03:14;;;;;;;;;;;;;;;13.88;75.27;99804.97;1052047;28;1094;-72
2023/01/08 04:04:05;;;;;;;;;;;;;;;13.90;75.48;99807.50;1052910;28;1062;-71
2023/01/08 04:04:56;;;;;;;;;;;;;;;13.90;75.16;99820.88;1052364;28;1157;-72
2023/01/08 04:05:46;;;;;;;;;;;;;;;13.90;74.97;99818.22;1053492;28;1074;-71
2023/01/08 04:06:36;;;;;;;;;;;;;;;13.90;75.04;99818.22;1052506;28;1074;-71
2023/01/08 04:07:27;;;;;;;;;;;;;;;13.90;75.40;99816.38;1053682;28;1058;-71
2023/01/08 04:08:17;;;;;;;;;;;;;;;13.91;75.61;99817.22;1047488;28;1079;-72
2023/01/08 04:09:08;;;;;;;;;;;;;;;13.91;74.96;99811.88;1046878;28;1181;-71
2023/01/08 04:09:58;;;;;;;;;;;;;;;13.90;75.18;99811.00;1053321;28;1066;-71
2023/01/08 04:10:48;;;;;;;;;;;;;;;13.90;75.32;99813.69;1051541;28;1055;-71
2023/01/08 04:11:39;;;;;;;;;;;;;;;13.90;74.93;99818.22;1052347;28;1098;-71
2023/01/08 04:12:29;;;;;;;;;;;;;;;13.89;75.27;99820.03;1051330;28;1914;-71
2023/01/08 04:13:20;;;;;;;;;;;;;;;13.90;75.07;99820.88;1051283;28;920;-71
2023/01/08 04:14:11;;;;;;;;;;;;;;;13.90;74.89;99826.25;1052650;28;1154;-71
2023/01/08 04:15:01;;;;;;;;;;;;;;;13.92;75.24;99823.41;1051732;28;646;-71
2023/01/08 04:15:52;;;;;;;;;;;;;;;13.92;75.17;99823.41;1052849;28;1233;-71
2023/01/08 04:16:42;;;;;;;;;;;;;;;13.90;74.83;99821.72;1048753;28;1710;-71
2023/01/08 04:17:33;;;;;;;;;;;;;;;13.90;75.53;99821.72;1044755;28;1191;-71
2023/01/08 04:18:24;;;;;;;;;;;;;;;13.90;74.83;99824.41;1048568;28;626;-72
2023/01/08 04:19:14;;;;;;;;;;;;;;;13.89;75.31;99824.56;1048274;28;658;-72
2023/01/08 04:20:05;;;;;;;;;;;;;;;13.89;75.34;99825.41;1048917;28;709;-71
2023/01/08 04:20:55;;;;;;;;;;;;;;;13.90;74.93;99818.22;1049839;28;1210;-72
2023/01/08 04:21:46;;;;;;;;;;;;;;;13.90;75.15;99810.16;1048907;28;695;-72
2023/01/08 04:22:36;;;;;;;;;;;;;;;13.89;74.96;99803.97;1049383;28;625;-72
2023/01/08 04:23:26;;;;;;;;;;;;;;;13.89;75.27;99797.78;1052481;28;820;-71
2023/01/08 04:24:17;;;;;;;;;;;;;;;13.89;75.35;99798.63;1053074;28;718;-71
2023/01/08 04:25:07;;;;;;;;;;;;;;;13.89;75.39;99795.09;1052887;28;1143;-71
2023/01/08 04:25:58;;;;;;;;;;;;;;;13.89;74.85;99798.63;1052512;28;690;-71
2023/01/08 04:26:48;;;;;;;;;;;;;;;13.89;75.47;99792.41;1052089;28;1572;-72
2023/01/08 04:27:39;;;;;;;;;;;;;;;13.89;74.95;99803.97;1051967;28;784;-71
2023/01/08 04:28:29;;;;;;;;;;;;;;;13.89;75.20;99795.94;1052641;28;1187;-72